createdAt,value
2023-03-15T00:04:05.874Z,4.82
2023-03-15T00:09:07.899Z,6.93
2023-03-15T00:14:10.802Z,5.50
2023-03-15T00:24:14.165Z,8.20
2023-03-15T00:29:15.809Z,8.52
2023-03-15T00:34:18.960Z,7.00
2023-03-15T00:39:21.048Z,7.00
2023-03-15T00:44:24.395Z,5.33
2023-03-15T00:49:26.107Z,4.95
2023-03-15T00:54:27.829Z,6.10
2023-03-15T00:59:34.833Z,5.78
2023-03-15T01:04:37.231Z,7.75
2023-03-15T01:09:39.031Z,7.20
2023-03-15T01:14:40.971Z,5.23
2023-03-15T01:19:42.733Z,6.07
2023-03-15T01:24:44.574Z,6.73
2023-03-15T01:29:46.649Z,10.60
2023-03-15T01:34:49.751Z,6.35
2023-03-15T01:39:51.899Z,8.17
2023-03-15T01:44:55.764Z,6.20
2023-03-15T01:50:06.760Z,6.75
2023-03-15T01:55:14.094Z,5.20
2023-03-15T02:00:29.609Z,7.05
2023-03-15T02:05:46.112Z,7.07
2023-03-15T02:10:56.233Z,8.05
2023-03-15T02:16:00.216Z,7.55
2023-03-15T02:21:18.453Z,8.55
2023-03-15T02:26:34.625Z,12.00
2023-03-15T02:31:37.828Z,13.32
2023-03-15T02:36:39.890Z,8.68
2023-03-15T02:41:45.480Z,9.23
2023-03-15T02:46:51.142Z,15.52
2023-03-15T02:51:56.189Z,11.52
2023-03-15T02:56:57.887Z,11.33
2023-03-15T03:01:59.686Z,12.48
2023-03-15T03:07:01.465Z,11.80
2023-03-15T03:12:11.317Z,15.55
2023-03-15T03:17:14.432Z,12.60
2023-03-15T03:27:19.143Z,9.93
2023-03-15T03:32:22.259Z,6.78
2023-03-15T03:37:24.069Z,5.37
2023-03-15T03:42:48.648Z,3.78
2023-03-15T03:47:53.313Z,4.68
2023-03-15T03:52:55.286Z,4.63
2023-03-15T03:58:01.932Z,7.18
2023-03-15T04:03:13.991Z,4.23
2023-03-15T04:08:21.701Z,5.85
2023-03-15T04:13:25.358Z,4.15
2023-03-15T04:18:28.400Z,7.85
2023-03-15T04:23:30.532Z,5.95
2023-03-15T04:28:45.119Z,4.30
2023-03-15T04:34:04.534Z,6.35
2023-03-15T04:39:32.820Z,5.53
2023-03-15T04:44:56.756Z,8.10
2023-03-15T04:50:23.782Z,10.15
2023-03-15T04:55:35.300Z,7.40
2023-03-15T05:01:15.441Z,12.13
2023-03-15T05:06:26.472Z,9.27
2023-03-15T05:11:57.914Z,8.75
2023-03-15T05:17:24.572Z,8.18
2023-03-15T05:22:45.042Z,9.35
2023-03-15T05:28:06.107Z,10.73
2023-03-15T05:33:33.919Z,11.23
2023-03-15T05:39:03.224Z,12.95
2023-03-15T05:44:29.292Z,10.60
2023-03-15T05:49:52.452Z,14.27
2023-03-15T05:55:24.197Z,13.55
2023-03-15T06:00:49.307Z,13.50
2023-03-15T06:06:06.107Z,14.38
2023-03-15T06:11:13.345Z,17.20
2023-03-15T06:16:15.915Z,16.17
2023-03-15T06:21:21.880Z,15.68
2023-03-15T06:26:24.063Z,11.95
2023-03-15T06:31:30.131Z,15.43
2023-03-15T06:36:38.740Z,15.32
2023-03-15T06:41:41.927Z,14.60
2023-03-15T06:46:49.857Z,19.13
2023-03-15T06:51:53.702Z,18.45
2023-03-15T06:56:57.787Z,13.90
2023-03-15T07:01:59.523Z,18.45
2023-03-15T07:07:01.298Z,20.90
2023-03-15T07:12:03.021Z,17.23
2023-03-15T07:17:04.901Z,18.87
2023-03-15T07:22:06.918Z,13.70
2023-03-15T07:27:15.054Z,17.03
2023-03-15T07:32:18.049Z,15.88
2023-03-15T07:37:19.941Z,12.85
2023-03-15T07:42:21.722Z,18.33
2023-03-15T07:47:26.696Z,14.13
2023-03-15T07:52:28.354Z,15.88
2023-03-15T07:57:30.130Z,17.67
2023-03-15T08:02:32.143Z,16.53
2023-03-15T08:07:33.866Z,13.10
2023-03-15T08:12:35.634Z,15.88
2023-03-15T08:17:37.776Z,15.57
2023-03-15T08:22:39.440Z,15.70
2023-03-15T08:27:42.128Z,12.43
2023-03-15T08:32:46.340Z,14.77
2023-03-15T08:37:52.306Z,13.98
2023-03-15T08:42:54.515Z,11.82
2023-03-15T08:48:00.402Z,13.45
2023-03-15T08:53:02.149Z,11.32
2023-03-15T08:58:05.234Z,8.10
2023-03-15T09:03:07.499Z,19.15
2023-03-15T09:08:09.139Z,8.55
2023-03-15T09:13:15.037Z,12.85
2023-03-15T09:18:18.003Z,10.65
2023-03-15T09:23:21.288Z,12.30
2023-03-15T09:28:25.710Z,12.52
2023-03-15T09:33:27.544Z,10.98
2023-03-15T09:38:29.356Z,14.35
2023-03-15T09:43:43.496Z,12.77
2023-03-15T09:49:01.313Z,11.13
2023-03-15T09:54:19.061Z,11.43
2023-03-15T09:59:22.937Z,9.93
2023-03-15T10:04:30.868Z,11.48
2023-03-15T10:09:33.744Z,10.77
2023-03-15T10:19:58.966Z,10.48
2023-03-15T10:25:23.533Z,10.80
2023-03-15T10:30:29.431Z,10.95
2023-03-15T10:35:32.142Z,5.22
2023-03-15T10:45:41.664Z,5.70
2023-03-15T10:50:43.413Z,9.48
2023-03-15T10:55:45.592Z,7.80
2023-03-15T11:00:53.523Z,8.90
2023-03-15T11:05:57.437Z,9.13
2023-03-15T11:11:00.239Z,9.63
2023-03-15T11:21:12.161Z,6.68
2023-03-15T11:26:25.775Z,9.10
2023-03-15T11:31:35.631Z,6.55
2023-03-15T11:36:41.489Z,4.25
2023-03-15T11:41:55.125Z,5.75
2023-03-15T11:47:24.565Z,5.47
2023-03-15T11:52:29.110Z,8.98
2023-03-15T11:57:37.220Z,5.65
2023-03-15T12:02:52.638Z,6.22
2023-03-15T12:08:15.444Z,5.57
2023-03-15T12:13:22.248Z,7.07
2023-03-15T12:18:33.555Z,6.53
2023-03-15T12:23:40.340Z,8.68
2023-03-15T12:28:51.273Z,6.97
2023-03-15T12:33:58.235Z,8.27
2023-03-15T12:39:15.121Z,6.05
2023-03-15T12:44:33.335Z,6.60
2023-03-15T12:49:44.231Z,6.47
2023-03-15T12:54:53.851Z,5.43
2023-03-15T13:00:15.040Z,6.00
2023-03-15T13:05:30.415Z,7.07
2023-03-15T13:10:50.493Z,6.57
2023-03-15T13:16:06.856Z,5.30
2023-03-15T13:21:16.729Z,5.25
2023-03-15T13:26:27.105Z,3.35
2023-03-15T13:31:31.678Z,4.47
2023-03-15T13:36:46.051Z,6.55
2023-03-15T13:41:47.986Z,7.97
2023-03-15T13:46:51.567Z,6.73
2023-03-15T13:51:53.740Z,7.30
2023-03-15T13:57:16.556Z,6.68
2023-03-15T14:02:25.088Z,6.43
2023-03-15T14:07:36.998Z,3.58
2023-03-15T14:12:39.003Z,6.68
2023-03-15T14:17:53.013Z,5.60
2023-03-15T14:22:58.925Z,6.43
2023-03-15T14:28:02.496Z,10.15
2023-03-15T14:33:08.688Z,6.22
2023-03-15T14:38:22.854Z,7.57
2023-03-15T14:43:24.626Z,5.80
2023-03-15T14:48:32.147Z,4.82
2023-03-15T14:53:36.089Z,7.97
2023-03-15T14:58:37.745Z,10.55
2023-03-15T15:03:43.186Z,8.57
2023-03-15T15:08:46.976Z,9.02
2023-03-15T15:13:48.756Z,12.75
2023-03-15T15:18:50.585Z,5.57
2023-03-15T15:23:58.343Z,7.80
2023-03-15T15:29:01.113Z,6.63
2023-03-15T15:34:02.957Z,8.53
2023-03-15T15:39:15.979Z,7.15
2023-03-15T15:54:26.750Z,8.45
2023-03-15T15:59:28.565Z,7.22
2023-03-15T16:04:30.861Z,7.68
2023-03-15T16:09:37.547Z,8.95
2023-03-15T16:14:39.577Z,6.82
2023-03-15T16:19:41.345Z,6.10
2023-03-15T16:24:46.796Z,7.43
2023-03-15T16:29:49.904Z,8.82
2023-03-15T16:34:53.217Z,5.65
2023-03-15T16:39:57.738Z,6.22
2023-03-15T16:44:59.598Z,6.65
2023-03-15T16:50:01.318Z,6.43
2023-03-15T16:55:03.838Z,3.35
2023-03-15T17:00:11.879Z,4.55
2023-03-15T17:05:19.859Z,6.30
2023-03-15T17:10:27.550Z,7.28
2023-03-15T17:15:30.625Z,6.03
2023-03-15T17:20:32.511Z,6.45
2023-03-15T17:25:34.524Z,5.83
2023-03-15T17:30:37.610Z,6.37
2023-03-15T17:35:47.864Z,5.07
2023-03-15T17:40:50.521Z,6.97
2023-03-15T17:45:52.314Z,8.40
2023-03-15T17:50:54.050Z,6.23
2023-03-15T17:55:55.785Z,8.23
2023-03-15T18:00:57.629Z,5.25
2023-03-15T18:06:01.359Z,4.83
2023-03-15T18:11:03.302Z,5.78
2023-03-15T18:16:05.369Z,4.73
2023-03-15T18:21:13.320Z,7.87
2023-03-15T18:26:15.857Z,4.70
2023-03-15T18:31:25.446Z,8.35
2023-03-15T18:36:27.101Z,5.50
2023-03-15T18:41:28.772Z,6.10
2023-03-15T18:46:31.708Z,5.28
2023-03-15T18:51:34.094Z,5.82
2023-03-15T18:56:35.808Z,6.13
2023-03-15T19:01:38.253Z,6.70
2023-03-15T19:06:40.210Z,4.45
2023-03-15T19:11:43.412Z,6.18
2023-03-15T19:16:45.140Z,6.80
2023-03-15T19:21:46.962Z,7.20
2023-03-15T19:26:48.647Z,7.15
2023-03-15T19:31:50.535Z,8.87
2023-03-15T19:36:52.967Z,5.57
2023-03-15T19:41:54.654Z,6.72
2023-03-15T19:46:56.917Z,10.40
2023-03-15T19:51:58.645Z,11.65
2023-03-15T19:57:00.902Z,8.40
2023-03-15T20:02:02.707Z,6.72
2023-03-15T20:07:04.526Z,9.60
2023-03-15T20:12:08.024Z,12.82
2023-03-15T20:17:09.698Z,11.88
2023-03-15T20:22:11.399Z,9.45
2023-03-15T20:27:13.639Z,16.50
2023-03-15T20:32:15.840Z,9.87
2023-03-15T20:37:18.401Z,9.20
2023-03-15T20:42:24.354Z,6.50
2023-03-15T20:47:26.393Z,7.55
2023-03-15T20:52:28.221Z,6.77
2023-03-15T20:57:29.926Z,8.60
2023-03-15T21:02:31.738Z,12.00
2023-03-15T21:07:34.176Z,10.03
2023-03-15T21:12:36.100Z,6.53
2023-03-15T21:17:37.850Z,7.83
2023-03-15T21:22:39.557Z,6.90
2023-03-15T21:27:41.285Z,7.03
2023-03-15T21:32:43.557Z,6.60
2023-03-15T21:42:47.796Z,8.75
2023-03-15T21:47:52.939Z,7.95
2023-03-15T21:52:56.519Z,7.53
2023-03-15T21:57:58.473Z,9.63
2023-03-15T22:03:01.393Z,7.50
2023-03-15T22:08:03.180Z,10.93
2023-03-15T22:13:04.865Z,6.97
2023-03-15T22:18:06.652Z,6.30
2023-03-15T22:23:08.701Z,7.67
2023-03-15T22:28:11.226Z,7.10
2023-03-15T22:33:12.883Z,8.17
2023-03-15T22:38:15.668Z,8.80
2023-03-15T22:43:17.751Z,6.72
2023-03-15T22:48:19.437Z,7.72
2023-03-15T22:53:21.154Z,7.80
2023-03-15T22:58:23.209Z,8.10
2023-03-15T23:03:26.266Z,8.48
2023-03-15T23:08:28.210Z,7.40
2023-03-15T23:13:29.915Z,8.07
2023-03-15T23:18:34.281Z,10.03
2023-03-15T23:23:38.541Z,8.32
2023-03-15T23:28:40.265Z,8.88
2023-03-15T23:33:42.741Z,8.70
2023-03-15T23:38:44.507Z,9.07
2023-03-15T23:43:46.209Z,7.87
2023-03-15T23:48:47.882Z,7.90
2023-03-15T23:53:49.625Z,8.13
2023-03-15T23:58:51.796Z,7.80
